Terminal Aerodrome Forecast
Issued by NWS

Home | Current Version | Previous Version | Text Only | Print | Product List | Glossary On
Versions: 1 2 3 4 5 6 7 8 9 10 11 12 13 14 15
000
FTUS43 KSGF 260700 AAA
TAFJLN
TAF AMD
KJLN 260730Z 2608/2706 20013G20KT P6SM SKC WS020/23040KT
     FM261400 21015G22KT P6SM SKC
     FM270100 19012KT P6SM SKC=

USA.gov is the U.S. government's official web portal to all federal, state and local government web resources and services.